Time,TemperatureF,DewpointF,PressureIn,WindDirection,WindDirectionDegrees,WindSpeedMPH,WindSpeedGustMPH,Humidity,HourlyPrecipIn,Conditions,Clouds,dailyrainin,SolarRadiationWatts/m^2,SoftwareType,DateUTC
2013-11-10 00:00:00,51.2,50.1,30.21,NNE,29,0.0,0.0,96,0.00,,,0.18,0,Wunderground v.1.15,2013-11-10 05:00:00,
2013-11-10 00:05:00,51.2,50.1,30.21,NNE,29,0.0,0.0,96,0.00,,,0.18,0,Wunderground v.1.15,2013-11-10 05:05:00,
2013-11-10 00:10:00,51.2,50.1,30.21,NNE,29,0.0,0.0,96,0.00,,,0.18,0,Wunderground v.1.15,2013-11-10 05:10:00,
2013-11-10 00:15:00,51.2,50.1,30.21,NNE,29,0.0,0.0,96,0.00,,,0.18,0,Wunderground v.1.15,2013-11-10 05:15:00,
2013-11-10 00:20:00,51.1,50.0,30.21,NNE,29,0.0,0.0,96,0.00,,,0.18,0,Wunderground v.1.15,2013-11-10 05:20:00,
2013-11-10 00:30:00,51.1,50.0,30.21,NNE,29,0.0,0.0,96,0.00,,,0.18,0,Wunderground v.1.15,2013-11-10 05:30:00,
2013-11-10 00:35:00,51.2,50.1,30.20,NNE,29,0.0,0.0,96,0.00,,,0.18,0,Wunderground v.1.15,2013-11-10 05:35:00,
2013-11-10 00:45:00,51.3,50.2,30.21,North,5,0.0,0.0,96,0.00,,,0.18,0,Wunderground v.1.15,2013-11-10 05:45:00,
2013-11-10 00:50:00,51.3,50.2,30.21,North,5,0.0,0.0,96,0.00,,,0.18,0,Wunderground v.1.15,2013-11-10 05:50:00,
2013-11-10 00:55:00,51.3,50.2,30.21,North,5,0.0,0.0,96,0.00,,,0.18,0,Wunderground v.1.15,2013-11-10 05:55:00,
2013-11-10 01:00:00,51.3,50.2,30.21,North,5,0.0,0.0,96,0.00,,,0.18,0,Wunderground v.1.15,2013-11-10 06:00:00,
2013-11-10 01:10:00,51.3,50.2,30.21,North,5,0.0,1.0,96,0.00,,,0.00,0,Wunderground v.1.15,2013-11-10 06:10:00,
2013-11-10 01:15:00,51.3,50.2,30.21,North,5,0.0,1.0,96,0.00,,,0.00,0,Wunderground v.1.15,2013-11-10 06:15:00,
2013-11-10 01:25:00,51.4,50.3,30.21,North,5,0.0,1.0,96,0.00,,,0.00,0,Wunderground v.1.15,2013-11-10 06:25:00,
2013-11-10 01:30:00,51.4,50.3,30.21,North,5,0.0,1.0,96,0.00,,,0.00,0,Wunderground v.1.15,2013-11-10 06:30:00,
2013-11-10 01:35:00,51.4,50.3,30.21,North,5,0.0,1.0,96,0.00,,,0.00,0,Wunderground v.1.15,2013-11-10 06:35:00,
2013-11-10 01:40:00,51.4,50.3,30.21,North,5,0.0,1.0,96,0.00,,,0.00,0,Wunderground v.1.15,2013-11-10 06:40:00,
2013-11-10 01:45:00,51.4,50.3,30.21,North,5,0.0,1.0,96,0.00,,,0.00,0,Wunderground v.1.15,2013-11-10 06:45:00,
2013-11-10 01:55:00,51.3,50.2,30.21,North,5,0.0,1.0,96,0.00,,,0.00,0,Wunderground v.1.15,2013-11-10 06:55:00,
2013-11-10 02:05:00,51.4,50.3,30.22,North,5,0.0,1.0,96,0.00,,,0.00,0,Wunderground v.1.15,2013-11-10 07:05:00,
2013-11-10 02:10:00,51.4,50.3,30.22,North,5,0.0,1.0,96,0.00,,,0.00,0,Wunderground v.1.15,2013-11-10 07:10:00,
2013-11-10 02:20:00,51.5,50.4,30.22,North,5,0.0,1.0,96,0.00,,,0.00,0,Wunderground v.1.15,2013-11-10 07:20:00,
2013-11-10 02:30:00,51.6,50.5,30.22,North,5,0.0,1.0,96,0.00,,,0.00,0,Wunderground v.1.15,2013-11-10 07:30:00,
2013-11-10 02:35:00,51.5,50.4,30.22,North,5,0.0,1.0,96,0.00,,,0.00,0,Wunderground v.1.15,2013-11-10 07:35:00,
2013-11-10 02:45:00,51.5,50.4,30.21,North,5,0.0,1.0,96,0.00,,,0.00,0,Wunderground v.1.15,2013-11-10 07:45:00,
2013-11-10 02:50:00,51.5,50.4,30.22,North,5,0.0,1.0,96,0.00,,,0.00,0,Wunderground v.1.15,2013-11-10 07:50:00,
2013-11-10 03:00:00,51.5,50.4,30.22,North,5,0.0,1.0,96,0.00,,,0.00,0,Wunderground v.1.15,2013-11-10 08:00:00,
2013-11-10 03:05:00,51.5,50.4,30.22,North,5,0.0,1.0,96,0.00,,,0.00,0,Wunderground v.1.15,2013-11-10 08:05:00,
2013-11-10 03:10:00,51.5,50.4,30.22,North,5,0.0,1.0,96,0.00,,,0.00,0,Wunderground v.1.15,2013-11-10 08:10:00,
2013-11-10 03:20:00,51.4,50.3,30.22,North,5,0.0,1.0,96,0.00,,,0.00,0,Wunderground v.1.15,2013-11-10 08:20:00,
2013-11-10 03:30:00,51.5,50.4,30.23,North,5,0.0,1.0,96,0.00,,,0.00,0,Wunderground v.1.15,2013-11-10 08:30:00,
2013-11-10 03:40:00,51.5,50.4,30.22,North,5,0.0,1.0,96,0.00,,,0.00,0,Wunderground v.1.15,2013-11-10 08:40:00,
2013-11-10 03:45:00,51.4,50.3,30.22,North,5,0.0,1.0,96,0.00,,,0.00,0,Wunderground v.1.15,2013-11-10 08:45:00,
2013-11-10 03:50:00,51.4,50.3,30.22,North,5,0.0,1.0,96,0.00,,,0.00,0,Wunderground v.1.15,2013-11-10 08:50:00,
2013-11-10 04:00:00,51.4,50.3,30.23,North,5,0.0,1.0,96,0.00,,,0.00,0,Wunderground v.1.15,2013-11-10 09:00:00,
2013-11-10 04:10:00,51.3,50.2,30.23,North,5,0.0,1.0,96,0.00,,,0.00,0,Wunderground v.1.15,2013-11-10 09:10:00,
2013-11-10 04:20:00,51.3,50.2,30.23,North,5,0.0,1.0,96,0.00,,,0.00,0,Wunderground v.1.15,2013-11-10 09:20:00,
2013-11-10 04:25:00,51.1,50.0,30.23,North,5,0.0,1.0,96,0.00,,,0.00,0,Wunderground v.1.15,2013-11-10 09:25:00,
2013-11-10 04:35:00,50.7,49.6,30.23,North,5,0.0,1.0,96,0.00,,,0.00,0,Wunderground v.1.15,2013-11-10 09:35:00,
2013-11-10 04:40:00,50.6,49.5,30.23,North,5,0.0,1.0,96,0.00,,,0.00,0,Wunderground v.1.15,2013-11-10 09:40:00,
2013-11-10 04:50:00,50.4,49.3,30.23,North,5,0.0,1.0,96,0.00,,,0.00,0,Wunderground v.1.15,2013-11-10 09:50:00,
2013-11-10 04:55:00,50.4,49.3,30.23,North,5,0.0,1.0,96,0.00,,,0.00,0,Wunderground v.1.15,2013-11-10 09:55:00,
2013-11-10 05:05:00,50.2,49.1,30.23,North,5,0.0,1.0,96,0.00,,,0.00,0,Wunderground v.1.15,2013-11-10 10:05:00,
2013-11-10 05:15:00,50.1,49.0,30.23,North,5,0.0,1.0,96,0.00,,,0.00,0,Wunderground v.1.15,2013-11-10 10:15:00,
2013-11-10 05:25:00,50.0,48.9,30.23,North,5,0.0,1.0,96,0.00,,,0.00,0,Wunderground v.1.15,2013-11-10 10:25:00,
2013-11-10 05:35:00,50.0,48.9,30.24,North,5,0.0,1.0,96,0.00,,,0.00,0,Wunderground v.1.15,2013-11-10 10:35:00,
2013-11-10 05:45:00,49.8,48.7,30.24,North,5,0.0,1.0,96,0.00,,,0.00,0,Wunderground v.1.15,2013-11-10 10:45:00,
2013-11-10 05:50:00,49.7,48.6,30.24,North,5,0.0,1.0,96,0.00,,,0.00,0,Wunderground v.1.15,2013-11-10 10:50:00,
2013-11-10 05:55:00,49.6,48.5,30.25,North,5,0.0,1.0,96,0.00,,,0.00,0,Wunderground v.1.15,2013-11-10 10:55:00,
2013-11-10 06:05:00,49.4,48.3,30.24,North,5,0.0,1.0,96,0.00,,,0.00,0,Wunderground v.1.15,2013-11-10 11:05:00,
2013-11-10 06:15:00,49.2,48.1,30.24,North,5,0.0,1.0,96,0.00,,,0.00,0,Wunderground v.1.15,2013-11-10 11:15:00,
2013-11-10 06:25:00,49.2,48.1,30.24,North,5,0.0,1.0,96,0.00,,,0.00,0,Wunderground v.1.15,2013-11-10 11:25:00,
2013-11-10 06:30:00,49.2,48.1,30.25,North,5,0.0,1.0,96,0.00,,,0.00,0,Wunderground v.1.15,2013-11-10 11:30:00,
2013-11-10 06:40:00,49.3,48.2,30.25,North,5,0.0,1.0,96,0.00,,,0.00,0,Wunderground v.1.15,2013-11-10 11:40:00,
2013-11-10 06:50:00,49.4,48.6,30.25,North,5,0.0,1.0,97,0.00,,,0.00,0,Wunderground v.1.15,2013-11-10 11:50:00,
2013-11-10 07:00:00,49.4,48.6,30.26,North,5,0.0,0.0,97,0.00,,,0.00,0,Wunderground v.1.15,2013-11-10 12:00:00,
2013-11-10 07:10:00,49.3,48.2,30.26,North,5,0.0,1.0,96,0.00,,,0.00,0,Wunderground v.1.15,2013-11-10 12:10:00,
2013-11-10 07:20:00,49.3,48.2,30.26,North,5,0.0,1.0,96,0.00,,,0.00,0,Wunderground v.1.15,2013-11-10 12:20:00,
2013-11-10 07:30:00,49.1,48.0,30.26,North,5,0.0,1.0,96,0.00,,,0.00,0,Wunderground v.1.15,2013-11-10 12:30:00,
2013-11-10 07:35:00,49.1,48.0,30.26,North,5,0.0,1.0,96,0.00,,,0.00,0,Wunderground v.1.15,2013-11-10 12:35:00,
2013-11-10 07:45:00,49.1,48.0,30.26,North,5,0.0,1.0,96,0.00,,,0.00,5,Wunderground v.1.15,2013-11-10 12:45:00,
2013-11-10 07:55:00,49.2,48.4,30.27,North,5,0.0,1.0,97,0.00,,,0.00,11,Wunderground v.1.15,2013-11-10 12:55:00,
2013-11-10 08:05:00,49.4,48.6,30.27,North,5,0.0,1.0,97,0.00,,,0.00,14,Wunderground v.1.15,2013-11-10 13:05:00,
2013-11-10 08:10:00,49.4,48.6,30.27,NNW,348,0.0,1.0,97,0.00,,,0.00,18,Wunderground v.1.15,2013-11-10 13:10:00,
2013-11-10 08:15:00,49.5,48.7,30.28,NNW,348,0.0,1.0,97,0.00,,,0.00,26,Wunderground v.1.15,2013-11-10 13:15:00,
2013-11-10 08:25:00,49.6,48.8,30.28,NNW,348,0.0,1.0,97,0.00,,,0.00,33,Wunderground v.1.15,2013-11-10 13:25:00,
2013-11-10 08:30:00,49.7,48.9,30.28,NNW,348,0.0,1.0,97,0.00,,,0.00,33,Wunderground v.1.15,2013-11-10 13:30:00,
2013-11-10 08:35:00,49.8,49.0,30.28,NNW,348,0.0,1.0,97,0.00,,,0.00,39,Wunderground v.1.15,2013-11-10 13:35:00,
2013-11-10 08:40:00,50.1,49.3,30.28,NNW,348,0.0,1.0,97,0.00,,,0.00,58,Wunderground v.1.15,2013-11-10 13:40:00,
2013-11-10 08:50:00,50.7,49.9,30.28,NNW,348,0.0,1.0,97,0.00,,,0.00,67,Wunderground v.1.15,2013-11-10 13:50:00,
2013-11-10 09:00:00,51.4,50.6,30.29,NNW,348,0.0,1.0,97,0.00,,,0.00,70,Wunderground v.1.15,2013-11-10 14:00:00,
2013-11-10 09:05:00,51.8,51.3,30.29,NNW,348,0.0,1.0,98,0.00,,,0.00,58,Wunderground v.1.15,2013-11-10 14:05:00,
2013-11-10 09:10:00,51.9,51.4,30.29,NNW,348,0.0,1.0,98,0.00,,,0.00,60,Wunderground v.1.15,2013-11-10 14:10:00,
2013-11-10 09:20:00,52.1,51.6,30.29,NNW,348,0.0,1.0,98,0.00,,,0.00,32,Wunderground v.1.15,2013-11-10 14:20:00,
2013-11-10 09:30:00,52.2,51.7,30.29,NNW,348,0.0,1.0,98,0.00,,,0.00,33,Wunderground v.1.15,2013-11-10 14:30:00,
2013-11-10 09:35:00,52.3,51.5,30.29,NNW,348,0.0,1.0,97,0.00,,,0.00,33,Wunderground v.1.15,2013-11-10 14:35:00,
2013-11-10 09:45:00,52.6,51.8,30.29,NNW,341,0.0,1.0,97,0.00,,,0.00,70,Wunderground v.1.15,2013-11-10 14:45:00,
2013-11-10 09:50:00,52.7,51.9,30.30,NNW,341,0.0,1.0,97,0.00,,,0.00,33,Wunderground v.1.15,2013-11-10 14:50:00,
2013-11-10 10:00:00,52.9,51.8,30.30,NNW,341,0.0,1.0,96,0.00,,,0.00,39,Wunderground v.1.15,2013-11-10 15:00:00,
2013-11-10 10:10:00,53.1,51.7,30.30,NNW,341,0.0,1.0,95,0.00,,,0.00,83,Wunderground v.1.15,2013-11-10 15:10:00,
2013-11-10 10:15:00,53.3,51.9,30.30,NNW,341,0.0,1.0,95,0.00,,,0.00,141,Wunderground v.1.15,2013-11-10 15:15:00,
2013-11-10 10:25:00,54.4,52.1,30.30,NNW,342,0.0,1.0,92,0.00,,,0.00,584,Wunderground v.1.15,2013-11-10 15:25:00,
2013-11-10 10:35:00,56.1,52.3,30.29,NNE,32,0.0,1.0,87,0.00,,,0.00,610,Wunderground v.1.15,2013-11-10 15:35:00,
2013-11-10 10:45:00,58.2,55.0,30.29,NNE,32,0.0,1.0,89,0.00,,,0.00,661,Wunderground v.1.15,2013-11-10 15:45:00,
2013-11-10 10:55:00,59.2,52.3,30.29,WNW,302,0.0,1.0,78,0.00,,,0.00,193,Wunderground v.1.15,2013-11-10 15:55:00,
2013-11-10 11:05:00,59.1,52.6,30.29,NW,318,0.0,1.0,79,0.00,,,0.00,675,Wunderground v.1.15,2013-11-10 16:05:00,
2013-11-10 11:10:00,59.6,52.0,30.29,WNW,299,0.0,1.0,76,0.00,,,0.00,244,Wunderground v.1.15,2013-11-10 16:10:00,
2013-11-10 11:15:00,60.3,52.3,30.29,WNW,294,0.0,1.0,75,0.00,,,0.00,425,Wunderground v.1.15,2013-11-10 16:15:00,
2013-11-10 11:25:00,61.2,53.6,30.29,ENE,61,0.0,1.0,76,0.00,,,0.00,343,Wunderground v.1.15,2013-11-10 16:25:00,
2013-11-10 11:35:00,61.5,48.4,30.29,NNE,19,0.0,1.0,62,0.00,,,0.00,587,Wunderground v.1.15,2013-11-10 16:35:00,
2013-11-10 11:45:00,62.7,49.9,30.29,NNE,22,0.0,1.0,63,0.00,,,0.00,603,Wunderground v.1.15,2013-11-10 16:45:00,
2013-11-10 11:50:00,63.0,50.6,30.28,North,355,0.0,1.0,64,0.00,,,0.00,622,Wunderground v.1.15,2013-11-10 16:50:00,
2013-11-10 11:55:00,63.4,51.4,30.28,NW,308,0.0,1.0,65,0.00,,,0.00,650,Wunderground v.1.15,2013-11-10 16:55:00,
2013-11-10 12:00:00,63.6,52.4,30.28,WNW,295,0.0,1.0,67,0.00,,,0.00,680,Wunderground v.1.15,2013-11-10 17:00:00,
2013-11-10 12:05:00,63.8,51.0,30.28,WSW,252,0.0,1.0,63,0.00,,,0.00,636,Wunderground v.1.15,2013-11-10 17:05:00,
2013-11-10 12:10:00,64.2,50.5,30.28,NNE,19,0.0,1.0,61,0.00,,,0.00,622,Wunderground v.1.15,2013-11-10 17:10:00,
2013-11-10 12:15:00,64.5,51.2,30.28,WNW,302,0.0,1.0,62,0.00,,,0.00,628,Wunderground v.1.15,2013-11-10 17:15:00,
2013-11-10 12:20:00,64.5,49.4,30.27,South,182,0.0,1.0,58,0.00,,,0.00,629,Wunderground v.1.15,2013-11-10 17:20:00,
2013-11-10 12:25:00,64.4,50.7,30.27,NNW,327,0.0,1.0,61,0.00,,,0.00,631,Wunderground v.1.15,2013-11-10 17:25:00,
2013-11-10 12:35:00,65.9,50.7,30.26,NW,314,0.0,1.0,58,0.00,,,0.00,636,Wunderground v.1.15,2013-11-10 17:35:00,
2013-11-10 12:40:00,66.2,51.4,30.26,WNW,293,0.0,1.0,59,0.00,,,0.00,635,Wunderground v.1.15,2013-11-10 17:40:00,
2013-11-10 12:50:00,65.5,50.3,30.26,North,9,0.0,1.0,58,0.00,,,0.00,638,Wunderground v.1.15,2013-11-10 17:50:00,
2013-11-10 12:55:00,65.3,51.1,30.26,NNW,338,0.0,1.0,60,0.00,,,0.00,640,Wunderground v.1.15,2013-11-10 17:55:00,
2013-11-10 13:00:00,65.8,51.1,30.26,ENE,64,0.0,0.0,59,0.00,,,0.00,640,Wunderground v.1.15,2013-11-10 18:00:00,
2013-11-10 13:10:00,66.4,51.2,30.25,NW,325,0.0,2.0,58,0.00,,,0.00,636,Wunderground v.1.15,2013-11-10 18:10:00,
2013-11-10 13:20:00,67.1,51.4,30.25,NE,53,0.0,2.0,57,0.00,,,0.00,635,Wunderground v.1.15,2013-11-10 18:20:00,
2013-11-10 13:25:00,67.6,49.3,30.24,WNW,302,0.0,2.0,52,0.00,,,0.00,629,Wunderground v.1.15,2013-11-10 18:25:00,
2013-11-10 13:35:00,67.2,48.5,30.24,ENE,69,1.0,2.0,51,0.00,,,0.00,628,Wunderground v.1.15,2013-11-10 18:35:00,
2013-11-10 13:45:00,67.0,48.3,30.24,ENE,64,0.0,2.0,51,0.00,,,0.00,615,Wunderground v.1.15,2013-11-10 18:45:00,
2013-11-10 13:50:00,67.6,49.9,30.24,NW,304,0.0,2.0,53,0.00,,,0.00,589,Wunderground v.1.15,2013-11-10 18:50:00,
2013-11-10 13:55:00,68.0,49.7,30.24,West,270,0.0,2.0,52,0.00,,,0.00,606,Wunderground v.1.15,2013-11-10 18:55:00,
2013-11-10 14:05:00,68.2,49.9,30.23,ESE,109,0.0,2.0,52,0.00,,,0.00,594,Wunderground v.1.15,2013-11-10 19:05:00,
2013-11-10 14:15:00,67.9,50.6,30.22,ENE,75,0.0,2.0,54,0.00,,,0.00,582,Wunderground v.1.15,2013-11-10 19:15:00,
2013-11-10 14:25:00,67.3,48.0,30.22,NE,44,0.0,2.0,50,0.00,,,0.00,127,Wunderground v.1.15,2013-11-10 19:25:00,
2013-11-10 14:30:00,66.8,47.6,30.22,East,84,0.0,2.0,50,0.00,,,0.00,76,Wunderground v.1.15,2013-11-10 19:30:00,
2013-11-10 14:35:00,66.7,46.9,30.22,North,355,0.0,2.0,49,0.00,,,0.00,53,Wunderground v.1.15,2013-11-10 19:35:00,
2013-11-10 14:40:00,66.9,47.1,30.22,NNW,340,0.0,2.0,49,0.00,,,0.00,76,Wunderground v.1.15,2013-11-10 19:40:00,
2013-11-10 14:50:00,67.0,49.8,30.21,ENE,78,0.0,2.0,54,0.00,,,0.00,309,Wunderground v.1.15,2013-11-10 19:50:00,
2013-11-10 15:00:00,66.7,48.5,30.21,NE,34,0.0,2.0,52,0.00,,,0.00,146,Wunderground v.1.15,2013-11-10 20:00:00,
2013-11-10 15:10:00,66.8,48.1,30.21,ENE,59,0.0,2.0,51,0.00,,,0.00,480,Wunderground v.1.15,2013-11-10 20:10:00,
2013-11-10 15:20:00,67.4,48.6,30.21,North,350,0.0,2.0,51,0.00,,,0.00,257,Wunderground v.1.15,2013-11-10 20:20:00,
2013-11-10 15:30:00,67.3,50.1,30.21,West,280,0.0,2.0,54,0.00,,,0.00,40,Wunderground v.1.15,2013-11-10 20:30:00,
2013-11-10 15:35:00,67.4,50.7,30.21,West,280,0.0,2.0,55,0.00,,,0.00,40,Wunderground v.1.15,2013-11-10 20:35:00,
2013-11-10 15:45:00,66.9,49.7,30.21,East,83,0.0,2.0,54,0.00,,,0.00,93,Wunderground v.1.15,2013-11-10 20:45:00,
2013-11-10 15:55:00,66.6,49.4,30.21,South,182,0.0,2.0,54,0.00,,,0.00,378,Wunderground v.1.15,2013-11-10 20:55:00,
2013-11-10 16:00:00,66.7,50.5,30.21,NE,46,0.0,2.0,56,0.00,,,0.00,332,Wunderground v.1.15,2013-11-10 21:00:00,
2013-11-10 16:10:00,66.6,51.4,30.21,NE,54,0.0,2.0,58,0.00,,,0.00,199,Wunderground v.1.15,2013-11-10 21:10:00,
2013-11-10 16:20:00,67.3,51.1,30.21,North,355,0.0,2.0,56,0.00,,,0.00,325,Wunderground v.1.15,2013-11-10 21:20:00,
2013-11-10 16:25:00,67.3,51.5,30.21,NE,40,0.0,2.0,57,0.00,,,0.00,91,Wunderground v.1.15,2013-11-10 21:25:00,
2013-11-10 16:35:00,66.8,52.5,30.21,NE,40,0.0,2.0,60,0.00,,,0.00,95,Wunderground v.1.15,2013-11-10 21:35:00,
2013-11-10 16:45:00,66.5,52.6,30.21,NE,40,0.0,2.0,61,0.00,,,0.00,76,Wunderground v.1.15,2013-11-10 21:45:00,
2013-11-10 16:55:00,66.3,52.9,30.21,NE,40,0.0,2.0,62,0.00,,,0.00,65,Wunderground v.1.15,2013-11-10 21:55:00,
2013-11-10 17:00:00,66.1,52.7,30.21,NE,40,0.0,2.0,62,0.00,,,0.00,53,Wunderground v.1.15,2013-11-10 22:00:00,
2013-11-10 17:10:00,65.4,52.0,30.21,NE,40,0.0,2.0,62,0.00,,,0.00,30,Wunderground v.1.15,2013-11-10 22:10:00,
2013-11-10 17:15:00,65.2,53.1,30.21,NE,40,0.0,2.0,65,0.00,,,0.00,26,Wunderground v.1.15,2013-11-10 22:15:00,
2013-11-10 17:20:00,65.2,53.1,30.21,NE,40,0.0,2.0,65,0.00,,,0.00,23,Wunderground v.1.15,2013-11-10 22:20:00,
2013-11-10 17:25:00,65.0,53.8,30.21,NE,40,0.0,2.0,67,0.00,,,0.00,21,Wunderground v.1.15,2013-11-10 22:25:00,
2013-11-10 17:35:00,64.3,52.3,30.21,NE,40,0.0,2.0,65,0.00,,,0.00,19,Wunderground v.1.15,2013-11-10 22:35:00,
2013-11-10 17:45:00,62.9,52.6,30.21,NE,40,0.0,2.0,69,0.00,,,0.00,14,Wunderground v.1.15,2013-11-10 22:45:00,
2013-11-10 17:55:00,61.9,51.6,30.21,NE,40,0.0,2.0,69,0.00,,,0.00,11,Wunderground v.1.15,2013-11-10 22:55:00,
2013-11-10 18:00:00,61.5,53.5,30.21,NE,40,0.0,2.0,75,0.00,,,0.00,9,Wunderground v.1.15,2013-11-10 23:00:00,
2013-11-10 18:10:00,60.7,52.7,30.21,NE,40,0.0,2.0,75,0.00,,,0.00,0,Wunderground v.1.15,2013-11-10 23:10:00,
2013-11-10 18:20:00,60.0,54.2,30.21,NE,40,0.0,2.0,81,0.00,,,0.00,0,Wunderground v.1.15,2013-11-10 23:20:00,
2013-11-10 18:30:00,59.1,53.6,30.21,NE,40,0.0,2.0,82,0.00,,,0.00,0,Wunderground v.1.15,2013-11-10 23:30:00,
2013-11-10 18:35:00,58.9,53.7,30.21,NE,40,0.0,2.0,83,0.00,,,0.00,0,Wunderground v.1.15,2013-11-10 23:35:00,
2013-11-10 18:40:00,58.5,53.4,30.21,NE,40,0.0,2.0,83,0.00,,,0.00,0,Wunderground v.1.15,2013-11-10 23:40:00,
2013-11-10 18:45:00,58.3,53.2,30.22,NE,40,0.0,2.0,83,0.00,,,0.00,0,Wunderground v.1.15,2013-11-10 23:45:00,
2013-11-10 18:55:00,58.0,52.9,30.22,NE,40,0.0,2.0,83,0.00,,,0.00,0,Wunderground v.1.15,2013-11-10 23:55:00,
2013-11-10 19:00:00,57.7,52.9,30.22,NE,40,0.0,0.0,84,0.00,,,0.00,0,Wunderground v.1.15,2013-11-11 00:00:00,
2013-11-10 19:10:00,57.2,53.0,30.22,NE,40,0.0,0.0,86,0.00,,,0.00,0,Wunderground v.1.15,2013-11-11 00:10:00,
2013-11-10 19:20:00,56.6,52.5,30.22,NE,40,0.0,0.0,86,0.00,,,0.00,0,Wunderground v.1.15,2013-11-11 00:20:00,
2013-11-10 19:25:00,56.1,52.3,30.22,NE,40,0.0,0.0,87,0.00,,,0.00,0,Wunderground v.1.15,2013-11-11 00:25:00,
2013-11-10 19:35:00,55.5,52.0,30.22,NE,40,0.0,0.0,88,0.00,,,0.00,0,Wunderground v.1.15,2013-11-11 00:35:00,
2013-11-10 19:40:00,55.3,51.5,30.22,NE,40,0.0,0.0,87,0.00,,,0.00,0,Wunderground v.1.15,2013-11-11 00:40:00,
2013-11-10 19:45:00,55.2,51.7,30.22,NE,40,0.0,0.0,88,0.00,,,0.00,0,Wunderground v.1.15,2013-11-11 00:45:00,
2013-11-10 19:50:00,55.1,51.9,30.23,NE,40,0.0,0.0,89,0.00,,,0.00,0,Wunderground v.1.15,2013-11-11 00:50:00,
2013-11-10 19:55:00,54.9,52.0,30.23,NE,40,0.0,0.0,90,0.00,,,0.00,0,Wunderground v.1.15,2013-11-11 00:55:00,
2013-11-10 20:05:00,54.6,52.0,30.23,NE,40,0.0,0.0,91,0.00,,,0.00,0,Wunderground v.1.15,2013-11-11 01:05:00,
2013-11-10 20:10:00,54.5,51.9,30.23,NE,40,0.0,0.0,91,0.00,,,0.00,0,Wunderground v.1.15,2013-11-11 01:10:00,
2013-11-10 20:20:00,54.3,51.7,30.23,NE,40,0.0,0.0,91,0.00,,,0.00,0,Wunderground v.1.15,2013-11-11 01:20:00,
2013-11-10 20:25:00,54.2,51.6,30.23,NE,40,0.0,0.0,91,0.00,,,0.00,0,Wunderground v.1.15,2013-11-11 01:25:00,
2013-11-10 20:30:00,54.1,51.5,30.22,NE,40,0.0,0.0,91,0.00,,,0.00,0,Wunderground v.1.15,2013-11-11 01:30:00,
2013-11-10 20:40:00,53.8,51.2,30.23,NE,40,0.0,0.0,91,0.00,,,0.00,0,Wunderground v.1.15,2013-11-11 01:40:00,
2013-11-10 20:50:00,53.4,50.8,30.22,NE,40,0.0,0.0,91,0.00,,,0.00,0,Wunderground v.1.15,2013-11-11 01:50:00,
2013-11-10 20:55:00,53.2,50.6,30.23,NE,40,0.0,0.0,91,0.00,,,0.00,0,Wunderground v.1.15,2013-11-11 01:55:00,
2013-11-10 21:05:00,52.9,50.3,30.23,NE,40,0.0,0.0,91,0.00,,,0.00,0,Wunderground v.1.15,2013-11-11 02:05:00,
2013-11-10 21:10:00,52.8,50.2,30.23,NE,40,0.0,0.0,91,0.00,,,0.00,0,Wunderground v.1.15,2013-11-11 02:10:00,
2013-11-10 21:20:00,52.6,50.0,30.23,NE,40,0.0,0.0,91,0.00,,,0.00,0,Wunderground v.1.15,2013-11-11 02:20:00,
2013-11-10 21:25:00,52.5,50.2,30.23,NE,40,0.0,0.0,92,0.00,,,0.00,0,Wunderground v.1.15,2013-11-11 02:25:00,
2013-11-10 21:30:00,52.5,50.2,30.23,NE,40,0.0,0.0,92,0.00,,,0.00,0,Wunderground v.1.15,2013-11-11 02:30:00,
2013-11-10 21:40:00,52.4,50.1,30.23,NE,40,0.0,0.0,92,0.00,,,0.00,0,Wunderground v.1.15,2013-11-11 02:40:00,
2013-11-10 21:50:00,52.4,50.4,30.23,NE,40,0.0,0.0,93,0.00,,,0.00,0,Wunderground v.1.15,2013-11-11 02:50:00,
2013-11-10 22:00:00,52.3,50.3,30.23,NE,40,0.0,0.0,93,0.00,,,0.00,0,Wunderground v.1.15,2013-11-11 03:00:00,
2013-11-10 22:05:00,52.2,50.2,30.23,NE,40,0.0,0.0,93,0.00,,,0.00,0,Wunderground v.1.15,2013-11-11 03:05:00,
2013-11-10 22:15:00,52.1,50.1,30.23,NE,40,0.0,0.0,93,0.00,,,0.00,0,Wunderground v.1.15,2013-11-11 03:15:00,
2013-11-10 22:25:00,51.8,49.8,30.23,NE,40,0.0,0.0,93,0.00,,,0.00,0,Wunderground v.1.15,2013-11-11 03:25:00,
2013-11-10 22:35:00,51.6,49.9,30.24,NE,40,0.0,0.0,94,0.00,,,0.00,0,Wunderground v.1.15,2013-11-11 03:35:00,
2013-11-10 22:45:00,51.5,49.8,30.24,NE,40,0.0,0.0,94,0.00,,,0.00,0,Wunderground v.1.15,2013-11-11 03:45:00,
2013-11-10 22:50:00,51.4,49.7,30.24,NE,40,0.0,0.0,94,0.00,,,0.00,0,Wunderground v.1.15,2013-11-11 03:50:00,
2013-11-10 22:55:00,51.4,49.7,30.24,NE,40,0.0,0.0,94,0.00,,,0.00,0,Wunderground v.1.15,2013-11-11 03:55:00,
2013-11-10 23:05:00,51.3,49.6,30.24,NE,40,0.0,0.0,94,0.00,,,0.00,0,Wunderground v.1.15,2013-11-11 04:05:00,
2013-11-10 23:15:00,51.2,49.5,30.24,NE,40,0.0,0.0,94,0.00,,,0.00,0,Wunderground v.1.15,2013-11-11 04:15:00,
2013-11-10 23:25:00,51.0,49.3,30.24,NE,40,0.0,0.0,94,0.00,,,0.00,0,Wunderground v.1.15,2013-11-11 04:25:00,
2013-11-10 23:30:00,50.9,49.2,30.24,NE,40,0.0,0.0,94,0.00,,,0.00,0,Wunderground v.1.15,2013-11-11 04:30:00,
2013-11-10 23:35:00,50.9,49.2,30.24,NE,40,0.0,0.0,94,0.00,,,0.00,0,Wunderground v.1.15,2013-11-11 04:35:00,
2013-11-10 23:40:00,50.8,49.1,30.23,NE,40,0.0,0.0,94,0.00,,,0.00,0,Wunderground v.1.15,2013-11-11 04:40:00,
2013-11-10 23:45:00,50.8,49.1,30.23,NE,40,0.0,0.0,94,0.00,,,0.00,0,Wunderground v.1.15,2013-11-11 04:45:00,
2013-11-10 23:50:00,50.8,49.4,30.23,NE,40,0.0,0.0,95,0.00,,,0.00,0,Wunderground v.1.15,2013-11-11 04:50:00,